sensor_id;sensor_type;location;lat;lon;timestamp;P1;durP1;ratioP1;P2;durP2;ratioP2
45065;SDS011;30830;53.704;10.004;2023-05-07T00:01:35;9.75;;;6.90;;
45065;SDS011;30830;53.704;10.004;2023-05-07T00:04:01;9.93;;;8.48;;
45065;SDS011;30830;53.704;10.004;2023-05-07T00:06:28;9.93;;;7.63;;
45065;SDS011;30830;53.704;10.004;2023-05-07T00:08:54;9.00;;;7.50;;
45065;SDS011;30830;53.704;10.004;2023-05-07T00:11:20;9.40;;;8.05;;
45065;SDS011;30830;53.704;10.004;2023-05-07T00:13:47;8.60;;;7.65;;
45065;SDS011;30830;53.704;10.004;2023-05-07T00:16:13;9.93;;;7.32;;
45065;SDS011;30830;53.704;10.004;2023-05-07T00:18:38;10.00;;;8.52;;
45065;SDS011;30830;53.704;10.004;2023-05-07T00:21:04;11.55;;;9.07;;
45065;SDS011;30830;53.704;10.004;2023-05-07T00:23:29;8.85;;;7.93;;
45065;SDS011;30830;53.704;10.004;2023-05-07T00:25:55;9.95;;;7.68;;
45065;SDS011;30830;53.704;10.004;2023-05-07T00:28:21;10.30;;;8.25;;
45065;SDS011;30830;53.704;10.004;2023-05-07T00:30:47;10.68;;;8.27;;
45065;SDS011;30830;53.704;10.004;2023-05-07T00:33:12;9.80;;;8.13;;
45065;SDS011;30830;53.704;10.004;2023-05-07T00:35:38;9.18;;;8.27;;
45065;SDS011;30830;53.704;10.004;2023-05-07T00:38:04;10.25;;;8.43;;
45065;SDS011;30830;53.704;10.004;2023-05-07T00:40:29;10.00;;;8.70;;
45065;SDS011;30830;53.704;10.004;2023-05-07T00:42:55;8.80;;;7.85;;
45065;SDS011;30830;53.704;10.004;2023-05-07T00:45:23;9.02;;;7.88;;
45065;SDS011;30830;53.704;10.004;2023-05-07T00:47:53;12.55;;;9.02;;
45065;SDS011;30830;53.704;10.004;2023-05-07T00:50:20;10.00;;;8.48;;
45065;SDS011;30830;53.704;10.004;2023-05-07T00:52:46;9.80;;;8.80;;
45065;SDS011;30830;53.704;10.004;2023-05-07T00:55:11;9.88;;;8.32;;
45065;SDS011;30830;53.704;10.004;2023-05-07T00:57:39;10.95;;;8.55;;
45065;SDS011;30830;53.704;10.004;2023-05-07T01:00:07;8.60;;;6.88;;
45065;SDS011;30830;53.704;10.004;2023-05-07T01:02:34;9.88;;;8.18;;
45065;SDS011;30830;53.704;10.004;2023-05-07T01:05:00;9.77;;;8.40;;
45065;SDS011;30830;53.704;10.004;2023-05-07T01:07:28;10.10;;;8.63;;
45065;SDS011;30830;53.704;10.004;2023-05-07T01:09:55;9.95;;;8.30;;
45065;SDS011;30830;53.704;10.004;2023-05-07T01:12:22;8.60;;;7.50;;
45065;SDS011;30830;53.704;10.004;2023-05-07T01:14:49;9.52;;;8.25;;
45065;SDS011;30830;53.704;10.004;2023-05-07T01:17:15;8.90;;;7.68;;
45065;SDS011;30830;53.704;10.004;2023-05-07T01:19:41;9.27;;;8.00;;
45065;SDS011;30830;53.704;10.004;2023-05-07T01:22:09;10.00;;;8.30;;
45065;SDS011;30830;53.704;10.004;2023-05-07T01:24:36;9.88;;;8.05;;
45065;SDS011;30830;53.704;10.004;2023-05-07T01:27:02;10.48;;;8.00;;
45065;SDS011;30830;53.704;10.004;2023-05-07T01:29:28;10.55;;;7.80;;
45065;SDS011;30830;53.704;10.004;2023-05-07T01:31:54;9.85;;;8.38;;
45065;SDS011;30830;53.704;10.004;2023-05-07T01:34:25;10.18;;;7.85;;
45065;SDS011;30830;53.704;10.004;2023-05-07T01:36:52;9.50;;;8.10;;
45065;SDS011;30830;53.704;10.004;2023-05-07T01:39:21;9.98;;;8.45;;
45065;SDS011;30830;53.704;10.004;2023-05-07T01:41:49;11.10;;;8.63;;
45065;SDS011;30830;53.704;10.004;2023-05-07T01:44:15;11.32;;;8.18;;
45065;SDS011;30830;53.704;10.004;2023-05-07T01:46:43;13.55;;;8.35;;
45065;SDS011;30830;53.704;10.004;2023-05-07T01:49:08;11.23;;;8.35;;
45065;SDS011;30830;53.704;10.004;2023-05-07T01:51:35;11.40;;;8.02;;
45065;SDS011;30830;53.704;10.004;2023-05-07T01:54:01;11.38;;;8.05;;
45065;SDS011;30830;53.704;10.004;2023-05-07T01:56:26;8.85;;;7.32;;
45065;SDS011;30830;53.704;10.004;2023-05-07T01:58:52;8.70;;;6.72;;
45065;SDS011;30830;53.704;10.004;2023-05-07T02:01:17;10.32;;;7.10;;
45065;SDS011;30830;53.704;10.004;2023-05-07T02:03:43;9.25;;;6.95;;
45065;SDS011;30830;53.704;10.004;2023-05-07T02:06:09;11.27;;;7.13;;
45065;SDS011;30830;53.704;10.004;2023-05-07T02:08:35;9.02;;;6.43;;
45065;SDS011;30830;53.704;10.004;2023-05-07T02:11:01;9.35;;;7.03;;
45065;SDS011;30830;53.704;10.004;2023-05-07T02:13:28;8.15;;;7.35;;
45065;SDS011;30830;53.704;10.004;2023-05-07T02:15:55;9.07;;;7.45;;
45065;SDS011;30830;53.704;10.004;2023-05-07T02:18:21;9.38;;;7.90;;
45065;SDS011;30830;53.704;10.004;2023-05-07T02:20:47;9.95;;;7.72;;
45065;SDS011;30830;53.704;10.004;2023-05-07T02:23:12;10.27;;;7.93;;
45065;SDS011;30830;53.704;10.004;2023-05-07T02:25:38;8.85;;;7.30;;
45065;SDS011;30830;53.704;10.004;2023-05-07T02:28:04;10.23;;;8.15;;
45065;SDS011;30830;53.704;10.004;2023-05-07T02:30:29;8.35;;;6.95;;
45065;SDS011;30830;53.704;10.004;2023-05-07T02:32:55;10.63;;;7.93;;
45065;SDS011;30830;53.704;10.004;2023-05-07T02:35:20;8.20;;;6.88;;
45065;SDS011;30830;53.704;10.004;2023-05-07T02:37:46;8.70;;;7.10;;
45065;SDS011;30830;53.704;10.004;2023-05-07T02:40:12;9.77;;;7.85;;
45065;SDS011;30830;53.704;10.004;2023-05-07T02:42:37;8.80;;;7.45;;
45065;SDS011;30830;53.704;10.004;2023-05-07T02:45:03;10.38;;;8.70;;
45065;SDS011;30830;53.704;10.004;2023-05-07T02:47:29;9.65;;;7.43;;
45065;SDS011;30830;53.704;10.004;2023-05-07T02:49:55;11.23;;;6.88;;
45065;SDS011;30830;53.704;10.004;2023-05-07T02:52:21;8.93;;;7.47;;
45065;SDS011;30830;53.704;10.004;2023-05-07T02:54:46;10.55;;;8.25;;
45065;SDS011;30830;53.704;10.004;2023-05-07T02:57:12;10.63;;;7.57;;
45065;SDS011;30830;53.704;10.004;2023-05-07T02:59:37;10.18;;;7.82;;
45065;SDS011;30830;53.704;10.004;2023-05-07T03:02:03;10.57;;;7.82;;
45065;SDS011;30830;53.704;10.004;2023-05-07T03:04:29;12.25;;;8.15;;
45065;SDS011;30830;53.704;10.004;2023-05-07T03:06:54;11.00;;;8.50;;
45065;SDS011;30830;53.704;10.004;2023-05-07T03:09:20;10.35;;;7.97;;
45065;SDS011;30830;53.704;10.004;2023-05-07T03:11:46;8.65;;;7.65;;
45065;SDS011;30830;53.704;10.004;2023-05-07T03:14:11;9.60;;;7.53;;
45065;SDS011;30830;53.704;10.004;2023-05-07T03:16:37;10.23;;;7.88;;
45065;SDS011;30830;53.704;10.004;2023-05-07T03:19:03;10.95;;;8.10;;
45065;SDS011;30830;53.704;10.004;2023-05-07T03:21:29;11.15;;;7.88;;
45065;SDS011;30830;53.704;10.004;2023-05-07T03:23:55;9.95;;;8.35;;
45065;SDS011;30830;53.704;10.004;2023-05-07T03:26:21;10.73;;;8.88;;
45065;SDS011;30830;53.704;10.004;2023-05-07T03:28:47;11.07;;;8.32;;
45065;SDS011;30830;53.704;10.004;2023-05-07T03:31:12;8.43;;;7.32;;
45065;SDS011;30830;53.704;10.004;2023-05-07T03:33:42;8.80;;;7.72;;
45065;SDS011;30830;53.704;10.004;2023-05-07T03:36:23;10.27;;;8.07;;
45065;SDS011;30830;53.704;10.004;2023-05-07T03:38:52;10.05;;;7.00;;
45065;SDS011;30830;53.704;10.004;2023-05-07T03:41:18;9.13;;;7.53;;
45065;SDS011;30830;53.704;10.004;2023-05-07T03:43:43;9.88;;;6.97;;
45065;SDS011;30830;53.704;10.004;2023-05-07T03:46:09;9.45;;;7.13;;
45065;SDS011;30830;53.704;10.004;2023-05-07T03:48:34;11.07;;;7.80;;
45065;SDS011;30830;53.704;10.004;2023-05-07T03:51:00;8.20;;;7.00;;
45065;SDS011;30830;53.704;10.004;2023-05-07T03:53:25;8.55;;;7.43;;
45065;SDS011;30830;53.704;10.004;2023-05-07T03:55:51;8.95;;;7.70;;
45065;SDS011;30830;53.704;10.004;2023-05-07T03:58:16;8.95;;;6.43;;
45065;SDS011;30830;53.704;10.004;2023-05-07T04:00:42;7.90;;;6.85;;
45065;SDS011;30830;53.704;10.004;2023-05-07T04:03:08;7.70;;;6.82;;
45065;SDS011;30830;53.704;10.004;2023-05-07T04:05:33;9.73;;;7.68;;
45065;SDS011;30830;53.704;10.004;2023-05-07T04:07:59;10.10;;;7.80;;
45065;SDS011;30830;53.704;10.004;2023-05-07T04:10:25;8.55;;;7.57;;
45065;SDS011;30830;53.704;10.004;2023-05-07T04:12:51;8.20;;;7.10;;
45065;SDS011;30830;53.704;10.004;2023-05-07T04:15:16;8.38;;;7.18;;
45065;SDS011;30830;53.704;10.004;2023-05-07T04:17:42;8.77;;;7.15;;
45065;SDS011;30830;53.704;10.004;2023-05-07T04:20:14;8.15;;;7.00;;
45065;SDS011;30830;53.704;10.004;2023-05-07T04:22:41;10.35;;;7.43;;
45065;SDS011;30830;53.704;10.004;2023-05-07T04:25:07;10.13;;;6.85;;
45065;SDS011;30830;53.704;10.004;2023-05-07T04:27:36;7.85;;;7.05;;
45065;SDS011;30830;53.704;10.004;2023-05-07T04:30:02;8.15;;;7.13;;
45065;SDS011;30830;53.704;10.004;2023-05-07T04:32:29;7.30;;;6.47;;
45065;SDS011;30830;53.704;10.004;2023-05-07T04:34:55;7.70;;;6.63;;
45065;SDS011;30830;53.704;10.004;2023-05-07T04:37:21;9.90;;;6.82;;
45065;SDS011;30830;53.704;10.004;2023-05-07T04:39:47;9.13;;;7.10;;
45065;SDS011;30830;53.704;10.004;2023-05-07T04:42:16;9.38;;;6.60;;
45065;SDS011;30830;53.704;10.004;2023-05-07T04:44:43;7.32;;;6.25;;
45065;SDS011;30830;53.704;10.004;2023-05-07T04:47:10;7.95;;;6.93;;
45065;SDS011;30830;53.704;10.004;2023-05-07T04:49:36;7.43;;;6.50;;
45065;SDS011;30830;53.704;10.004;2023-05-07T04:52:02;9.98;;;6.78;;
45065;SDS011;30830;53.704;10.004;2023-05-07T04:54:28;9.45;;;6.90;;
45065;SDS011;30830;53.704;10.004;2023-05-07T04:56:54;7.03;;;6.32;;
45065;SDS011;30830;53.704;10.004;2023-05-07T04:59:20;7.80;;;6.72;;
45065;SDS011;30830;53.704;10.004;2023-05-07T05:01:45;9.60;;;7.38;;
45065;SDS011;30830;53.704;10.004;2023-05-07T05:04:11;9.55;;;7.75;;
45065;SDS011;30830;53.704;10.004;2023-05-07T05:06:36;7.55;;;6.68;;
45065;SDS011;30830;53.704;10.004;2023-05-07T05:09:02;7.97;;;6.57;;
45065;SDS011;30830;53.704;10.004;2023-05-07T05:11:29;8.38;;;6.45;;
45065;SDS011;30830;53.704;10.004;2023-05-07T05:13:55;7.20;;;6.47;;
45065;SDS011;30830;53.704;10.004;2023-05-07T05:16:21;8.38;;;6.30;;
45065;SDS011;30830;53.704;10.004;2023-05-07T05:18:47;8.50;;;6.65;;
45065;SDS011;30830;53.704;10.004;2023-05-07T05:21:13;9.57;;;6.32;;
45065;SDS011;30830;53.704;10.004;2023-05-07T05:23:38;9.48;;;6.13;;
45065;SDS011;30830;53.704;10.004;2023-05-07T05:26:04;8.88;;;6.07;;
45065;SDS011;30830;53.704;10.004;2023-05-07T05:28:29;7.10;;;5.90;;
45065;SDS011;30830;53.704;10.004;2023-05-07T05:30:55;6.80;;;5.43;;
45065;SDS011;30830;53.704;10.004;2023-05-07T05:33:21;6.10;;;5.50;;
45065;SDS011;30830;53.704;10.004;2023-05-07T05:35:46;6.88;;;5.50;;
45065;SDS011;30830;53.704;10.004;2023-05-07T05:38:12;5.82;;;5.00;;
45065;SDS011;30830;53.704;10.004;2023-05-07T05:40:38;7.53;;;5.80;;
45065;SDS011;30830;53.704;10.004;2023-05-07T05:43:03;6.90;;;4.90;;
45065;SDS011;30830;53.704;10.004;2023-05-07T05:45:29;7.20;;;5.70;;
45065;SDS011;30830;53.704;10.004;2023-05-07T05:47:55;5.72;;;5.03;;
45065;SDS011;30830;53.704;10.004;2023-05-07T05:50:21;7.88;;;5.75;;
45065;SDS011;30830;53.704;10.004;2023-05-07T05:52:47;8.63;;;6.20;;
45065;SDS011;30830;53.704;10.004;2023-05-07T05:55:13;7.13;;;6.00;;
45065;SDS011;30830;53.704;10.004;2023-05-07T05:57:38;9.10;;;6.32;;
45065;SDS011;30830;53.704;10.004;2023-05-07T06:00:05;8.07;;;6.85;;
45065;SDS011;30830;53.704;10.004;2023-05-07T06:02:31;6.65;;;5.97;;
45065;SDS011;30830;53.704;10.004;2023-05-07T06:04:57;8.35;;;5.47;;
45065;SDS011;30830;53.704;10.004;2023-05-07T06:07:22;7.13;;;5.80;;
45065;SDS011;30830;53.704;10.004;2023-05-07T06:09:48;7.10;;;5.68;;
45065;SDS011;30830;53.704;10.004;2023-05-07T06:12:14;6.40;;;5.72;;
45065;SDS011;30830;53.704;10.004;2023-05-07T06:14:39;6.70;;;5.45;;
45065;SDS011;30830;53.704;10.004;2023-05-07T06:17:07;7.68;;;6.10;;
45065;SDS011;30830;53.704;10.004;2023-05-07T06:19:32;6.97;;;5.90;;
45065;SDS011;30830;53.704;10.004;2023-05-07T06:21:58;7.10;;;6.40;;
45065;SDS011;30830;53.704;10.004;2023-05-07T06:24:26;5.97;;;5.38;;
45065;SDS011;30830;53.704;10.004;2023-05-07T06:26:51;6.50;;;5.30;;
45065;SDS011;30830;53.704;10.004;2023-05-07T06:29:17;7.00;;;5.20;;
45065;SDS011;30830;53.704;10.004;2023-05-07T06:31:42;6.72;;;5.47;;
45065;SDS011;30830;53.704;10.004;2023-05-07T06:34:08;7.20;;;5.22;;
45065;SDS011;30830;53.704;10.004;2023-05-07T06:36:34;5.82;;;5.20;;
45065;SDS011;30830;53.704;10.004;2023-05-07T06:39:00;7.82;;;5.57;;
45065;SDS011;30830;53.704;10.004;2023-05-07T06:41:26;6.32;;;5.65;;
45065;SDS011;30830;53.704;10.004;2023-05-07T06:43:51;6.47;;;5.47;;
45065;SDS011;30830;53.704;10.004;2023-05-07T06:46:17;5.88;;;5.28;;
45065;SDS011;30830;53.704;10.004;2023-05-07T06:48:42;5.40;;;4.85;;
45065;SDS011;30830;53.704;10.004;2023-05-07T06:51:08;7.63;;;4.63;;
45065;SDS011;30830;53.704;10.004;2023-05-07T06:53:34;6.40;;;5.00;;
45065;SDS011;30830;53.704;10.004;2023-05-07T06:56:00;6.28;;;5.25;;
45065;SDS011;30830;53.704;10.004;2023-05-07T06:58:26;5.45;;;4.63;;
45065;SDS011;30830;53.704;10.004;2023-05-07T07:00:53;6.55;;;5.93;;
45065;SDS011;30830;53.704;10.004;2023-05-07T07:03:19;5.97;;;5.07;;
45065;SDS011;30830;53.704;10.004;2023-05-07T07:05:45;6.20;;;5.47;;
45065;SDS011;30830;53.704;10.004;2023-05-07T07:08:11;5.65;;;5.00;;
45065;SDS011;30830;53.704;10.004;2023-05-07T07:10:36;6.63;;;5.15;;
45065;SDS011;30830;53.704;10.004;2023-05-07T07:13:02;5.68;;;4.53;;
45065;SDS011;30830;53.704;10.004;2023-05-07T07:15:27;5.38;;;4.70;;
45065;SDS011;30830;53.704;10.004;2023-05-07T07:17:53;6.03;;;4.72;;
45065;SDS011;30830;53.704;10.004;2023-05-07T07:20:19;4.88;;;4.28;;
45065;SDS011;30830;53.704;10.004;2023-05-07T07:22:44;4.80;;;3.97;;
45065;SDS011;30830;53.704;10.004;2023-05-07T07:25:10;5.40;;;4.72;;
45065;SDS011;30830;53.704;10.004;2023-05-07T07:27:36;5.47;;;4.70;;
45065;SDS011;30830;53.704;10.004;2023-05-07T07:30:02;5.05;;;4.10;;
45065;SDS011;30830;53.704;10.004;2023-05-07T07:32:28;4.93;;;4.40;;
45065;SDS011;30830;53.704;10.004;2023-05-07T07:34:54;5.35;;;4.30;;
45065;SDS011;30830;53.704;10.004;2023-05-07T07:37:19;7.25;;;4.53;;
45065;SDS011;30830;53.704;10.004;2023-05-07T07:39:45;6.50;;;4.68;;
45065;SDS011;30830;53.704;10.004;2023-05-07T07:42:11;5.05;;;4.38;;
45065;SDS011;30830;53.704;10.004;2023-05-07T07:44:36;4.78;;;4.25;;
45065;SDS011;30830;53.704;10.004;2023-05-07T07:47:02;5.22;;;3.90;;
45065;SDS011;30830;53.704;10.004;2023-05-07T07:49:27;4.50;;;4.10;;
45065;SDS011;30830;53.704;10.004;2023-05-07T07:51:53;4.28;;;3.88;;
45065;SDS011;30830;53.704;10.004;2023-05-07T07:54:18;5.93;;;4.78;;
45065;SDS011;30830;53.704;10.004;2023-05-07T07:56:44;4.13;;;3.72;;
45065;SDS011;30830;53.704;10.004;2023-05-07T07:59:09;4.82;;;4.35;;
45065;SDS011;30830;53.704;10.004;2023-05-07T08:01:35;4.82;;;4.32;;
45065;SDS011;30830;53.704;10.004;2023-05-07T08:04:01;5.35;;;4.05;;
45065;SDS011;30830;53.704;10.004;2023-05-07T08:06:28;6.57;;;4.22;;
45065;SDS011;30830;53.704;10.004;2023-05-07T08:08:54;5.05;;;4.20;;
45065;SDS011;30830;53.704;10.004;2023-05-07T08:11:20;5.03;;;4.53;;
45065;SDS011;30830;53.704;10.004;2023-05-07T08:13:46;4.40;;;3.95;;
45065;SDS011;30830;53.704;10.004;2023-05-07T08:16:12;5.57;;;4.22;;
45065;SDS011;30830;53.704;10.004;2023-05-07T08:18:37;4.35;;;3.95;;
45065;SDS011;30830;53.704;10.004;2023-05-07T08:21:03;5.05;;;4.13;;
45065;SDS011;30830;53.704;10.004;2023-05-07T08:23:29;4.40;;;3.88;;
45065;SDS011;30830;53.704;10.004;2023-05-07T08:25:55;5.13;;;4.03;;
45065;SDS011;30830;53.704;10.004;2023-05-07T08:28:20;4.82;;;3.83;;
45065;SDS011;30830;53.704;10.004;2023-05-07T08:30:46;4.15;;;3.72;;
45065;SDS011;30830;53.704;10.004;2023-05-07T08:33:12;4.30;;;3.90;;
45065;SDS011;30830;53.704;10.004;2023-05-07T08:35:37;5.07;;;3.80;;
45065;SDS011;30830;53.704;10.004;2023-05-07T08:38:03;4.32;;;3.67;;
45065;SDS011;30830;53.704;10.004;2023-05-07T08:40:29;3.63;;;3.33;;
45065;SDS011;30830;53.704;10.004;2023-05-07T08:43:01;3.60;;;3.20;;
45065;SDS011;30830;53.704;10.004;2023-05-07T08:45:27;4.63;;;4.13;;
45065;SDS011;30830;53.704;10.004;2023-05-07T08:48:02;4.18;;;3.78;;
45065;SDS011;30830;53.704;10.004;2023-05-07T08:50:30;4.45;;;3.83;;
45065;SDS011;30830;53.704;10.004;2023-05-07T08:52:56;3.55;;;3.25;;
45065;SDS011;30830;53.704;10.004;2023-05-07T08:55:22;5.22;;;4.00;;
45065;SDS011;30830;53.704;10.004;2023-05-07T08:57:48;4.28;;;3.88;;
45065;SDS011;30830;53.704;10.004;2023-05-07T09:00:15;4.55;;;3.50;;
45065;SDS011;30830;53.704;10.004;2023-05-07T09:02:40;5.57;;;4.10;;
45065;SDS011;30830;53.704;10.004;2023-05-07T09:05:06;5.03;;;4.15;;
45065;SDS011;30830;53.704;10.004;2023-05-07T09:07:32;5.03;;;3.78;;
45065;SDS011;30830;53.704;10.004;2023-05-07T09:10:01;4.35;;;3.95;;
45065;SDS011;30830;53.704;10.004;2023-05-07T09:12:30;3.50;;;3.20;;
45065;SDS011;30830;53.704;10.004;2023-05-07T09:14:56;4.05;;;3.67;;
45065;SDS011;30830;53.704;10.004;2023-05-07T09:17:21;5.20;;;3.70;;
45065;SDS011;30830;53.704;10.004;2023-05-07T09:19:47;4.03;;;3.63;;
45065;SDS011;30830;53.704;10.004;2023-05-07T09:22:12;5.47;;;4.10;;
45065;SDS011;30830;53.704;10.004;2023-05-07T09:24:38;3.50;;;3.20;;
45065;SDS011;30830;53.704;10.004;2023-05-07T09:27:04;3.50;;;3.10;;
45065;SDS011;30830;53.704;10.004;2023-05-07T09:29:30;3.92;;;3.63;;
45065;SDS011;30830;53.704;10.004;2023-05-07T09:32:05;4.65;;;3.53;;
45065;SDS011;30830;53.704;10.004;2023-05-07T09:34:32;4.45;;;3.53;;
45065;SDS011;30830;53.704;10.004;2023-05-07T09:37:01;3.40;;;3.10;;
45065;SDS011;30830;53.704;10.004;2023-05-07T09:39:47;4.22;;;3.70;;
45065;SDS011;30830;53.704;10.004;2023-05-07T09:42:14;3.85;;;3.55;;
45065;SDS011;30830;53.704;10.004;2023-05-07T09:44:40;4.40;;;4.00;;
45065;SDS011;30830;53.704;10.004;2023-05-07T09:47:08;4.22;;;3.03;;
45065;SDS011;30830;53.704;10.004;2023-05-07T09:49:36;4.93;;;3.63;;
45065;SDS011;30830;53.704;10.004;2023-05-07T09:52:05;3.80;;;3.50;;
45065;SDS011;30830;53.704;10.004;2023-05-07T09:54:33;4.07;;;3.65;;
45065;SDS011;30830;53.704;10.004;2023-05-07T09:57:02;4.60;;;4.10;;
45065;SDS011;30830;53.704;10.004;2023-05-07T09:59:31;4.43;;;3.65;;
45065;SDS011;30830;53.704;10.004;2023-05-07T10:01:58;4.68;;;3.60;;
45065;SDS011;30830;53.704;10.004;2023-05-07T10:04:25;3.38;;;3.08;;
45065;SDS011;30830;53.704;10.004;2023-05-07T10:06:51;3.38;;;3.08;;
45065;SDS011;30830;53.704;10.004;2023-05-07T10:09:18;3.55;;;3.25;;
45065;SDS011;30830;53.704;10.004;2023-05-07T10:11:44;3.45;;;3.13;;
45065;SDS011;30830;53.704;10.004;2023-05-07T10:14:10;4.25;;;3.65;;
45065;SDS011;30830;53.704;10.004;2023-05-07T10:16:37;5.88;;;3.55;;
45065;SDS011;30830;53.704;10.004;2023-05-07T10:19:03;4.32;;;3.53;;
45065;SDS011;30830;53.704;10.004;2023-05-07T10:21:30;3.50;;;2.97;;
45065;SDS011;30830;53.704;10.004;2023-05-07T10:24:06;3.55;;;3.25;;
45065;SDS011;30830;53.704;10.004;2023-05-07T10:26:43;3.85;;;3.10;;
45065;SDS011;30830;53.704;10.004;2023-05-07T10:29:25;3.45;;;2.97;;
45065;SDS011;30830;53.704;10.004;2023-05-07T10:34:44;3.72;;;3.22;;
45065;SDS011;30830;53.704;10.004;2023-05-07T10:37:13;5.32;;;4.00;;
45065;SDS011;30830;53.704;10.004;2023-05-07T10:39:40;4.13;;;3.28;;
45065;SDS011;30830;53.704;10.004;2023-05-07T10:42:09;3.92;;;3.17;;
45065;SDS011;30830;53.704;10.004;2023-05-07T10:44:36;3.53;;;3.15;;
45065;SDS011;30830;53.704;10.004;2023-05-07T10:47:09;3.08;;;2.83;;
45065;SDS011;30830;53.704;10.004;2023-05-07T10:52:11;3.67;;;3.00;;
45065;SDS011;30830;53.704;10.004;2023-05-07T10:54:41;4.35;;;2.97;;
45065;SDS011;30830;53.704;10.004;2023-05-07T10:59:53;2.75;;;2.55;;
45065;SDS011;30830;53.704;10.004;2023-05-07T11:02:19;2.75;;;2.55;;
45065;SDS011;30830;53.704;10.004;2023-05-07T11:04:44;2.85;;;2.40;;
45065;SDS011;30830;53.704;10.004;2023-05-07T11:07:21;2.60;;;2.40;;
45065;SDS011;30830;53.704;10.004;2023-05-07T11:17:35;2.78;;;2.53;;
45065;SDS011;30830;53.704;10.004;2023-05-07T11:20:18;3.22;;;2.38;;
45065;SDS011;30830;53.704;10.004;2023-05-07T11:22:43;3.42;;;2.40;;
45065;SDS011;30830;53.704;10.004;2023-05-07T11:25:09;2.42;;;2.25;;
45065;SDS011;30830;53.704;10.004;2023-05-07T11:27:35;3.72;;;2.50;;
45065;SDS011;30830;53.704;10.004;2023-05-07T11:30:01;2.95;;;2.75;;
45065;SDS011;30830;53.704;10.004;2023-05-07T11:32:27;2.65;;;2.45;;
45065;SDS011;30830;53.704;10.004;2023-05-07T11:34:54;4.53;;;2.97;;
45065;SDS011;30830;53.704;10.004;2023-05-07T11:37:21;2.50;;;2.30;;
45065;SDS011;30830;53.704;10.004;2023-05-07T11:39:48;4.80;;;2.90;;
45065;SDS011;30830;53.704;10.004;2023-05-07T11:42:33;3.35;;;2.65;;
45065;SDS011;30830;53.704;10.004;2023-05-07T11:45:00;3.10;;;2.67;;
45065;SDS011;30830;53.704;10.004;2023-05-07T11:47:26;3.58;;;2.53;;
45065;SDS011;30830;53.704;10.004;2023-05-07T11:49:55;3.15;;;2.42;;
45065;SDS011;30830;53.704;10.004;2023-05-07T11:52:22;3.40;;;2.60;;
45065;SDS011;30830;53.704;10.004;2023-05-07T11:54:52;3.33;;;2.75;;
45065;SDS011;30830;53.704;10.004;2023-05-07T11:57:19;2.72;;;2.40;;
45065;SDS011;30830;53.704;10.004;2023-05-07T11:59:45;2.60;;;2.40;;
45065;SDS011;30830;53.704;10.004;2023-05-07T12:02:14;2.67;;;2.47;;
45065;SDS011;30830;53.704;10.004;2023-05-07T12:04:40;2.30;;;2.10;;
45065;SDS011;30830;53.704;10.004;2023-05-07T12:07:11;2.08;;;1.90;;
45065;SDS011;30830;53.704;10.004;2023-05-07T12:09:38;2.42;;;2.22;;
45065;SDS011;30830;53.704;10.004;2023-05-07T12:12:04;2.28;;;2.08;;
45065;SDS011;30830;53.704;10.004;2023-05-07T12:14:30;2.38;;;2.17;;
45065;SDS011;30830;53.704;10.004;2023-05-07T12:16:57;2.55;;;2.25;;
45065;SDS011;30830;53.704;10.004;2023-05-07T12:19:24;2.13;;;1.95;;
45065;SDS011;30830;53.704;10.004;2023-05-07T12:21:49;2.33;;;2.13;;
45065;SDS011;30830;53.704;10.004;2023-05-07T12:24:16;3.08;;;1.83;;
45065;SDS011;30830;53.704;10.004;2023-05-07T12:26:41;2.90;;;1.63;;
45065;SDS011;30830;53.704;10.004;2023-05-07T12:29:08;1.80;;;1.70;;
45065;SDS011;30830;53.704;10.004;2023-05-07T12:31:33;1.95;;;1.83;;
45065;SDS011;30830;53.704;10.004;2023-05-07T12:33:59;2.40;;;2.08;;
45065;SDS011;30830;53.704;10.004;2023-05-07T12:36:25;2.15;;;1.95;;
45065;SDS011;30830;53.704;10.004;2023-05-07T12:38:50;2.00;;;1.80;;
45065;SDS011;30830;53.704;10.004;2023-05-07T12:41:16;2.15;;;1.60;;
45065;SDS011;30830;53.704;10.004;2023-05-07T12:43:44;1.73;;;1.63;;
45065;SDS011;30830;53.704;10.004;2023-05-07T12:46:11;2.40;;;2.20;;
45065;SDS011;30830;53.704;10.004;2023-05-07T12:48:43;1.70;;;1.55;;
45065;SDS011;30830;53.704;10.004;2023-05-07T12:51:10;1.77;;;1.67;;
45065;SDS011;30830;53.704;10.004;2023-05-07T12:53:41;1.98;;;1.83;;
45065;SDS011;30830;53.704;10.004;2023-05-07T12:56:07;1.90;;;1.80;;
45065;SDS011;30830;53.704;10.004;2023-05-07T12:58:34;2.15;;;1.83;;
45065;SDS011;30830;53.704;10.004;2023-05-07T13:01:03;1.85;;;1.70;;
45065;SDS011;30830;53.704;10.004;2023-05-07T13:03:31;2.40;;;1.58;;
45065;SDS011;30830;53.704;10.004;2023-05-07T13:06:09;1.70;;;1.60;;
45065;SDS011;30830;53.704;10.004;2023-05-07T13:08:40;1.95;;;1.80;;
45065;SDS011;30830;53.704;10.004;2023-05-07T13:11:08;1.67;;;1.58;;
45065;SDS011;30830;53.704;10.004;2023-05-07T13:13:36;1.80;;;1.70;;
45065;SDS011;30830;53.704;10.004;2023-05-07T13:16:03;1.67;;;1.42;;
45065;SDS011;30830;53.704;10.004;2023-05-07T13:18:30;2.90;;;1.50;;
45065;SDS011;30830;53.704;10.004;2023-05-07T13:20:57;1.70;;;1.48;;
45065;SDS011;30830;53.704;10.004;2023-05-07T13:23:23;2.45;;;1.38;;
45065;SDS011;30830;53.704;10.004;2023-05-07T13:25:48;1.77;;;1.55;;
45065;SDS011;30830;53.704;10.004;2023-05-07T13:28:14;1.48;;;1.30;;
45065;SDS011;30830;53.704;10.004;2023-05-07T13:30:40;1.45;;;1.35;;
45065;SDS011;30830;53.704;10.004;2023-05-07T13:33:05;1.60;;;1.50;;
45065;SDS011;30830;53.704;10.004;2023-05-07T13:35:31;1.67;;;1.35;;
45065;SDS011;30830;53.704;10.004;2023-05-07T13:37:57;1.55;;;1.20;;
45065;SDS011;30830;53.704;10.004;2023-05-07T13:40:22;1.55;;;1.45;;
45065;SDS011;30830;53.704;10.004;2023-05-07T13:42:48;2.80;;;1.60;;
45065;SDS011;30830;53.704;10.004;2023-05-07T13:45:15;1.40;;;1.30;;
45065;SDS011;30830;53.704;10.004;2023-05-07T13:47:44;4.35;;;1.63;;
45065;SDS011;30830;53.704;10.004;2023-05-07T13:50:10;3.33;;;1.60;;
45065;SDS011;30830;53.704;10.004;2023-05-07T13:52:36;1.60;;;1.50;;
45065;SDS011;30830;53.704;10.004;2023-05-07T13:55:02;1.85;;;1.50;;
45065;SDS011;30830;53.704;10.004;2023-05-07T13:57:28;1.65;;;1.52;;
45065;SDS011;30830;53.704;10.004;2023-05-07T13:59:54;1.95;;;1.50;;
45065;SDS011;30830;53.704;10.004;2023-05-07T14:02:20;1.40;;;1.30;;
45065;SDS011;30830;53.704;10.004;2023-05-07T14:04:45;1.88;;;1.30;;
45065;SDS011;30830;53.704;10.004;2023-05-07T14:07:11;3.55;;;1.58;;
45065;SDS011;30830;53.704;10.004;2023-05-07T14:09:36;1.15;;;1.08;;
45065;SDS011;30830;53.704;10.004;2023-05-07T14:12:02;1.67;;;1.58;;
45065;SDS011;30830;53.704;10.004;2023-05-07T14:14:28;1.40;;;1.30;;
45065;SDS011;30830;53.704;10.004;2023-05-07T14:16:53;1.30;;;1.20;;
45065;SDS011;30830;53.704;10.004;2023-05-07T14:19:19;1.33;;;1.23;;
45065;SDS011;30830;53.704;10.004;2023-05-07T14:21:44;1.20;;;1.10;;
45065;SDS011;30830;53.704;10.004;2023-05-07T14:24:10;2.53;;;1.25;;
45065;SDS011;30830;53.704;10.004;2023-05-07T14:26:36;1.25;;;1.15;;
45065;SDS011;30830;53.704;10.004;2023-05-07T14:29:02;1.45;;;1.35;;
45065;SDS011;30830;53.704;10.004;2023-05-07T14:31:28;1.88;;;1.27;;
45065;SDS011;30830;53.704;10.004;2023-05-07T14:33:54;1.20;;;1.10;;
45065;SDS011;30830;53.704;10.004;2023-05-07T14:36:19;1.67;;;1.35;;
45065;SDS011;30830;53.704;10.004;2023-05-07T14:38:46;3.15;;;1.17;;
45065;SDS011;30830;53.704;10.004;2023-05-07T14:41:12;1.35;;;1.20;;
45065;SDS011;30830;53.704;10.004;2023-05-07T14:43:37;1.33;;;1.23;;
45065;SDS011;30830;53.704;10.004;2023-05-07T14:46:03;1.52;;;1.42;;